createdAt,value
2023-09-14T00:01:47.406Z,20.05
2023-09-14T00:04:35.026Z,21.52
2023-09-14T00:07:21.614Z,22.95
2023-09-14T00:10:08.543Z,24.13
2023-09-14T00:12:56.807Z,25.15
2023-09-14T00:15:43.747Z,23.00
2023-09-14T00:18:31.607Z,23.73
2023-09-14T00:21:18.598Z,22.70
2023-09-14T00:24:05.258Z,22.27
2023-09-14T00:26:52.213Z,21.75
2023-09-14T00:29:38.186Z,19.90
2023-09-14T00:32:25.023Z,19.80
2023-09-14T00:35:12.782Z,19.42
2023-09-14T00:37:59.391Z,20.50
2023-09-14T00:40:45.487Z,18.88
2023-09-14T00:43:32.174Z,19.52
2023-09-14T00:46:19.681Z,19.15
2023-09-14T00:49:07.312Z,19.77
2023-09-14T00:51:53.908Z,18.40
2023-09-14T00:54:41.392Z,19.73
2023-09-14T00:57:27.670Z,21.90
2023-09-14T01:00:15.282Z,18.98
2023-09-14T01:03:02.334Z,18.52
2023-09-14T01:05:50.402Z,18.15
2023-09-14T01:08:37.017Z,19.60
2023-09-14T01:11:23.429Z,20.63
2023-09-14T01:14:18.693Z,19.10
2023-09-14T01:17:51.531Z,19.35
2023-09-14T01:20:50.636Z,18.05
2023-09-14T01:23:39.526Z,19.13
2023-09-14T01:26:29.307Z,18.85
2023-09-14T01:29:16.338Z,19.15
2023-09-14T01:32:03.463Z,18.98
2023-09-14T01:34:50.128Z,19.80
2023-09-14T01:37:36.924Z,17.77
2023-09-14T01:40:24.698Z,18.42
2023-09-14T01:43:12.782Z,18.10
2023-09-14T01:45:59.461Z,17.65
2023-09-14T01:48:46.679Z,17.33
2023-09-14T01:51:33.090Z,16.65
2023-09-14T01:54:20.281Z,16.08
2023-09-14T01:57:06.112Z,16.48
2023-09-14T01:59:52.668Z,16.60
2023-09-14T02:02:38.830Z,16.58
2023-09-14T02:05:25.840Z,16.40
2023-09-14T02:08:11.713Z,17.05
2023-09-14T02:11:01.089Z,18.23
2023-09-14T02:13:49.078Z,17.92
2023-09-14T02:16:36.052Z,18.35
2023-09-14T02:19:22.841Z,18.42
2023-09-14T02:22:11.837Z,19.50
2023-09-14T02:24:58.305Z,20.63
2023-09-14T02:27:45.476Z,19.63
2023-09-14T02:30:31.779Z,21.17
2023-09-14T02:33:19.068Z,23.77
2023-09-14T02:36:05.435Z,23.80
2023-09-14T02:38:52.424Z,24.00
2023-09-14T02:41:38.383Z,26.23
2023-09-14T02:44:25.462Z,26.75
2023-09-14T02:47:11.324Z,25.13
2023-09-14T02:49:59.983Z,25.30
2023-09-14T02:52:46.487Z,23.42
2023-09-14T02:55:36.038Z,28.08
2023-09-14T02:58:22.589Z,25.60
2023-09-14T03:01:11.619Z,25.52
2023-09-14T03:03:59.435Z,23.35
2023-09-14T03:06:46.806Z,24.35
2023-09-14T03:09:33.250Z,23.42
2023-09-14T03:12:20.402Z,27.55
2023-09-14T03:15:08.510Z,23.52
2023-09-14T03:17:55.180Z,24.17
2023-09-14T03:20:46.745Z,23.00
2023-09-14T03:23:33.313Z,22.15
2023-09-14T03:26:19.820Z,20.00
2023-09-14T03:29:08.785Z,26.40
2023-09-14T03:31:55.288Z,21.05
2023-09-14T03:34:42.945Z,20.92
2023-09-14T03:37:30.031Z,20.27
2023-09-14T03:40:17.796Z,21.83
2023-09-14T03:43:04.022Z,22.35
2023-09-14T03:45:50.998Z,21.42
2023-09-14T03:48:40.039Z,21.75
2023-09-14T03:51:26.860Z,24.00
2023-09-14T03:54:12.832Z,21.48
2023-09-14T03:56:59.761Z,24.38
2023-09-14T03:59:47.876Z,22.27
2023-09-14T04:02:35.170Z,19.55
2023-09-14T04:05:21.460Z,19.23
2023-09-14T04:08:08.774Z,19.13
2023-09-14T04:10:55.536Z,19.13
2023-09-14T04:13:41.403Z,18.70
2023-09-14T04:16:30.871Z,19.40
2023-09-14T04:19:19.155Z,18.73
2023-09-14T04:22:05.318Z,18.10
2023-09-14T04:24:51.786Z,18.70
2023-09-14T04:27:38.274Z,19.73
2023-09-14T04:30:25.228Z,18.92
2023-09-14T04:33:16.244Z,18.17
2023-09-14T04:36:06.409Z,18.17
2023-09-14T04:38:53.405Z,18.17
2023-09-14T04:41:39.423Z,19.77
2023-09-14T04:44:25.313Z,18.35
2023-09-14T04:47:12.357Z,21.90
2023-09-14T04:49:58.494Z,19.65
2023-09-14T04:52:45.214Z,18.70
2023-09-14T04:55:31.341Z,17.10
2023-09-14T04:58:18.025Z,17.83
2023-09-14T05:01:06.641Z,17.48
2023-09-14T05:03:54.492Z,18.45
2023-09-14T05:06:40.788Z,19.83
2023-09-14T05:09:27.143Z,19.35
2023-09-14T05:12:13.341Z,19.05
2023-09-14T05:15:00.739Z,20.92
2023-09-14T05:17:49.144Z,21.70
2023-09-14T05:20:35.587Z,20.77
2023-09-14T05:23:21.583Z,23.23
2023-09-14T05:26:10.825Z,23.95
2023-09-14T05:28:57.028Z,23.50
2023-09-14T05:31:44.367Z,24.13
2023-09-14T05:34:31.596Z,28.30
2023-09-14T05:37:18.452Z,28.38
2023-09-14T05:40:13.431Z,30.55
2023-09-14T05:43:06.986Z,30.05
2023-09-14T05:45:53.290Z,28.77
2023-09-14T05:48:40.839Z,28.70
2023-09-14T05:51:27.603Z,26.65
2023-09-14T05:54:14.703Z,26.50
2023-09-14T05:57:01.684Z,26.00
2023-09-14T05:59:48.550Z,24.17
2023-09-14T06:02:34.586Z,25.10
2023-09-14T06:05:26.009Z,25.10
2023-09-14T06:08:13.360Z,33.17
2023-09-14T06:11:00.607Z,35.95
2023-09-14T06:13:48.904Z,29.40
2023-09-14T06:16:35.224Z,28.08
2023-09-14T06:19:22.285Z,26.98
2023-09-14T06:22:10.155Z,26.75
2023-09-14T06:24:56.484Z,26.48
2023-09-14T06:27:47.727Z,25.90
2023-09-14T06:30:34.366Z,25.45
2023-09-14T06:33:21.781Z,27.00
2023-09-14T06:36:09.224Z,29.13
2023-09-14T06:38:56.063Z,28.63
2023-09-14T06:41:42.191Z,28.02
2023-09-14T06:44:30.130Z,28.20
2023-09-14T06:47:16.952Z,27.13
2023-09-14T06:50:07.673Z,29.25
2023-09-14T06:52:54.868Z,28.60
2023-09-14T06:55:41.046Z,27.23
2023-09-14T06:58:27.446Z,26.17
2023-09-14T07:01:14.513Z,26.58
2023-09-14T07:04:01.738Z,28.38
2023-09-14T07:06:48.601Z,26.73
2023-09-14T07:09:35.053Z,25.48
2023-09-14T07:12:22.370Z,22.85
2023-09-14T07:15:08.999Z,21.83
2023-09-14T07:17:55.646Z,21.65
2023-09-14T07:20:42.456Z,21.60
2023-09-14T07:23:31.665Z,22.45
2023-09-14T07:26:17.659Z,24.83
2023-09-14T07:29:06.815Z,24.90
2023-09-14T07:31:54.676Z,24.38
2023-09-14T07:34:41.879Z,23.17
2023-09-14T07:37:28.474Z,22.98
2023-09-14T07:40:15.953Z,24.38
2023-09-14T07:43:02.217Z,23.83
2023-09-14T07:45:49.418Z,24.27
2023-09-14T07:48:35.609Z,24.52
2023-09-14T07:51:22.087Z,24.80
2023-09-14T07:54:08.093Z,25.02
2023-09-14T07:56:55.552Z,24.98
2023-09-14T07:59:42.122Z,24.13
2023-09-14T08:02:29.463Z,25.73
2023-09-14T08:05:16.449Z,26.55
2023-09-14T08:08:04.990Z,25.30
2023-09-14T08:10:54.897Z,25.45
2023-09-14T08:13:41.773Z,25.15
2023-09-14T08:16:32.362Z,25.30
2023-09-14T08:19:19.932Z,25.02
2023-09-14T08:22:07.317Z,24.13
2023-09-14T08:24:55.891Z,24.02
2023-09-14T08:27:42.618Z,23.88
2023-09-14T08:30:29.695Z,24.30
2023-09-14T08:33:20.188Z,24.75
2023-09-14T08:36:07.057Z,24.98
2023-09-14T08:39:03.478Z,25.83
2023-09-14T08:41:59.871Z,24.80
2023-09-14T08:44:48.640Z,26.17
2023-09-14T08:47:35.620Z,23.10
2023-09-14T08:50:25.793Z,22.50
2023-09-14T08:53:14.323Z,23.77
2023-09-14T08:56:02.417Z,23.55
2023-09-14T08:58:49.876Z,24.38
2023-09-14T09:01:36.859Z,22.65
2023-09-14T09:04:24.049Z,23.40
2023-09-14T09:07:10.751Z,23.63
2023-09-14T09:09:58.010Z,22.65
2023-09-14T09:12:46.748Z,23.02
2023-09-14T09:15:36.458Z,23.38
2023-09-14T09:18:22.545Z,23.17
2023-09-14T09:21:09.756Z,22.75
2023-09-14T09:23:57.978Z,21.15
2023-09-14T09:26:47.005Z,21.55
2023-09-14T09:29:33.773Z,21.77
2023-09-14T09:32:24.296Z,22.42
2023-09-14T09:35:36.691Z,22.27
2023-09-14T09:38:25.732Z,22.38
2023-09-14T09:41:12.295Z,22.33
2023-09-14T09:43:59.083Z,24.15
2023-09-14T09:46:45.576Z,24.90
2023-09-14T09:49:33.186Z,24.75
2023-09-14T09:52:20.204Z,25.98
2023-09-14T09:55:08.942Z,25.73
2023-09-14T09:57:59.016Z,26.70
2023-09-14T10:00:46.003Z,26.88
2023-09-14T10:03:32.443Z,27.17
2023-09-14T10:06:19.891Z,26.88
2023-09-14T10:09:10.901Z,28.60
2023-09-14T10:11:59.159Z,27.08
2023-09-14T10:14:48.845Z,27.85
2023-09-14T10:17:37.012Z,29.65
2023-09-14T10:20:25.108Z,28.10
2023-09-14T10:23:16.285Z,25.52
2023-09-14T10:26:03.279Z,26.08
2023-09-14T10:28:50.895Z,27.80
2023-09-14T10:31:37.630Z,27.50
2023-09-14T10:34:25.580Z,26.60
2023-09-14T10:37:12.852Z,27.15
2023-09-14T10:40:03.397Z,25.00
2023-09-14T10:42:49.853Z,22.80
2023-09-14T10:45:44.882Z,24.25
2023-09-14T10:48:32.090Z,24.02
2023-09-14T10:51:19.240Z,23.65
2023-09-14T10:54:05.669Z,23.73
2023-09-14T10:56:59.507Z,22.80
2023-09-14T10:59:53.011Z,23.48
2023-09-14T11:02:51.352Z,22.70
2023-09-14T11:05:48.748Z,23.15
2023-09-14T11:09:03.938Z,24.67
2023-09-14T11:11:57.608Z,23.20
2023-09-14T11:15:23.180Z,24.35
2023-09-14T11:18:10.029Z,23.77
2023-09-14T11:20:58.370Z,25.52
2023-09-14T11:23:45.208Z,24.63
2023-09-14T11:26:34.340Z,23.40
2023-09-14T11:29:24.620Z,23.75
2023-09-14T11:32:12.209Z,23.85
2023-09-14T11:35:03.700Z,23.33
2023-09-14T11:37:54.737Z,22.10
2023-09-14T11:40:45.796Z,19.92
2023-09-14T11:43:45.102Z,21.13
2023-09-14T11:46:40.408Z,21.17
2023-09-14T11:49:32.146Z,21.05
2023-09-14T11:52:21.613Z,23.13
2023-09-14T11:55:09.060Z,23.17
2023-09-14T11:57:58.727Z,23.15
2023-09-14T12:00:52.473Z,22.80
2023-09-14T12:03:39.632Z,22.40
2023-09-14T12:06:28.181Z,21.88
2023-09-14T12:09:30.859Z,21.20
2023-09-14T12:12:31.906Z,22.23
2023-09-14T12:15:20.078Z,20.92
2023-09-14T12:18:07.796Z,21.67
2023-09-14T12:20:54.223Z,23.67
2023-09-14T12:23:43.586Z,25.33
2023-09-14T12:26:29.977Z,24.05
2023-09-14T12:29:17.425Z,22.42
2023-09-14T12:32:04.251Z,24.15
2023-09-14T12:34:51.176Z,24.17
2023-09-14T12:37:39.003Z,24.58
2023-09-14T12:40:26.429Z,24.55
2023-09-14T12:43:12.854Z,23.98
2023-09-14T12:46:11.540Z,23.20
2023-09-14T12:49:16.734Z,21.98
2023-09-14T12:52:08.707Z,21.95
2023-09-14T12:54:56.334Z,22.33
2023-09-14T12:57:52.837Z,23.35
2023-09-14T13:00:40.409Z,22.15
2023-09-14T13:03:27.530Z,21.80
2023-09-14T13:06:13.759Z,20.98
2023-09-14T13:09:00.678Z,21.67
2023-09-14T13:11:52.314Z,20.85
2023-09-14T13:14:45.468Z,20.98
2023-09-14T13:17:31.853Z,18.38
2023-09-14T13:20:19.848Z,18.52
2023-09-14T13:23:06.648Z,18.67
2023-09-14T13:25:53.866Z,18.98
2023-09-14T13:28:40.193Z,18.38
2023-09-14T13:31:27.771Z,18.77
2023-09-14T13:34:14.472Z,19.10
2023-09-14T13:37:01.233Z,18.80
2023-09-14T13:39:47.949Z,18.98
2023-09-14T13:42:36.094Z,17.77
2023-09-14T13:45:23.170Z,18.25
2023-09-14T13:48:09.491Z,16.52
2023-09-14T13:50:56.072Z,17.15
2023-09-14T13:53:42.676Z,17.10
2023-09-14T13:56:28.619Z,16.90
2023-09-14T13:59:17.038Z,17.20
2023-09-14T14:02:04.942Z,16.92
2023-09-14T14:04:52.401Z,17.23
2023-09-14T14:07:38.919Z,16.75
2023-09-14T14:10:25.206Z,16.83
2023-09-14T14:13:11.555Z,17.30
2023-09-14T14:15:57.938Z,17.55
2023-09-14T14:18:45.263Z,18.02
2023-09-14T14:21:32.346Z,17.52
2023-09-14T14:24:18.837Z,16.48
2023-09-14T14:27:06.246Z,17.05
2023-09-14T14:29:52.593Z,16.15
2023-09-14T14:32:40.079Z,16.25
2023-09-14T14:35:26.493Z,14.73
2023-09-14T14:38:13.546Z,13.65
2023-09-14T14:41:33.536Z,15.10
2023-09-14T14:44:07.141Z,14.68
2023-09-14T14:46:55.248Z,15.35
2023-09-14T14:49:42.287Z,14.57
2023-09-14T14:52:28.495Z,14.63
2023-09-14T14:55:17.648Z,15.02
2023-09-14T14:58:04.880Z,14.60
2023-09-14T15:00:52.966Z,15.27
2023-09-14T15:03:43.193Z,15.38
2023-09-14T15:06:31.376Z,15.07
2023-09-14T15:09:17.812Z,15.82
2023-09-14T15:12:05.701Z,14.90
2023-09-14T15:14:53.493Z,15.57
2023-09-14T15:17:40.030Z,15.00
2023-09-14T15:20:34.398Z,14.48
2023-09-14T15:23:21.265Z,14.82
2023-09-14T15:26:07.717Z,13.93
2023-09-14T15:28:56.489Z,14.27
2023-09-14T15:31:42.910Z,13.80
2023-09-14T15:34:29.836Z,14.50
2023-09-14T15:37:16.013Z,14.27
2023-09-14T15:40:04.390Z,14.40
2023-09-14T15:42:50.424Z,14.65
2023-09-14T15:45:41.101Z,13.82
2023-09-14T15:48:28.564Z,14.32
2023-09-14T15:51:19.252Z,15.52
2023-09-14T15:54:05.659Z,14.43
2023-09-14T15:56:52.281Z,15.00
2023-09-14T15:59:39.236Z,15.32
2023-09-14T16:02:26.351Z,15.43
2023-09-14T16:05:12.937Z,16.50
2023-09-14T16:08:10.730Z,15.85
2023-09-14T16:10:57.893Z,14.40
2023-09-14T16:13:45.580Z,14.25
2023-09-14T16:16:32.551Z,14.48
2023-09-14T16:19:21.846Z,15.00
2023-09-14T16:22:08.542Z,15.18
2023-09-14T16:24:55.167Z,15.60
2023-09-14T16:27:41.821Z,14.57
2023-09-14T16:30:28.977Z,15.20
2023-09-14T16:33:15.575Z,14.88
2023-09-14T16:36:02.152Z,14.55
2023-09-14T16:38:48.995Z,13.52
2023-09-14T16:41:38.006Z,13.60
2023-09-14T16:44:25.645Z,13.95
2023-09-14T16:47:12.596Z,23.48
2023-09-14T16:49:59.115Z,15.85
2023-09-14T16:52:46.501Z,15.20
2023-09-14T16:55:33.066Z,14.00
2023-09-14T16:58:19.980Z,13.90
2023-09-14T17:01:06.863Z,13.40
2023-09-14T17:03:54.188Z,13.40
2023-09-14T17:06:41.351Z,13.48
2023-09-14T17:09:27.855Z,12.98
2023-09-14T17:12:14.460Z,14.25
2023-09-14T17:15:03.241Z,13.63
2023-09-14T17:17:50.737Z,14.32
2023-09-14T17:20:37.502Z,13.25
2023-09-14T17:23:23.854Z,13.75
2023-09-14T17:26:11.693Z,13.90
2023-09-14T17:29:00.760Z,13.43
2023-09-14T17:31:48.063Z,14.10
2023-09-14T17:34:37.952Z,14.18
2023-09-14T17:37:26.407Z,14.07
2023-09-14T17:40:13.790Z,13.95
2023-09-14T17:43:00.977Z,13.32
2023-09-14T17:45:47.770Z,13.25
2023-09-14T17:48:34.994Z,13.90
2023-09-14T17:51:21.498Z,13.75
2023-09-14T17:54:08.160Z,14.27
2023-09-14T17:56:55.416Z,13.95
2023-09-14T17:59:42.323Z,13.23
2023-09-14T18:02:28.729Z,13.60
2023-09-14T18:05:17.050Z,13.43
2023-09-14T18:08:04.803Z,14.30
2023-09-14T18:10:52.994Z,13.85
2023-09-14T18:13:39.646Z,14.35
2023-09-14T18:16:27.349Z,14.02
2023-09-14T18:19:16.049Z,14.30
2023-09-14T18:22:02.792Z,14.40
2023-09-14T18:24:53.849Z,14.50
2023-09-14T18:27:40.634Z,14.32
2023-09-14T18:30:26.774Z,15.60
2023-09-14T18:33:13.471Z,14.77
2023-09-14T18:36:00.567Z,14.55
2023-09-14T18:38:49.489Z,13.73
2023-09-14T18:41:35.572Z,14.25
2023-09-14T18:44:21.584Z,14.35
2023-09-14T18:47:10.419Z,14.43
2023-09-14T18:49:57.662Z,14.05
2023-09-14T18:52:45.459Z,14.25
2023-09-14T18:55:35.279Z,13.88
2023-09-14T18:58:50.463Z,13.73
2023-09-14T19:01:30.676Z,14.23
2023-09-14T19:04:19.219Z,14.05
2023-09-14T19:07:06.157Z,14.20
2023-09-14T19:09:54.632Z,14.35
2023-09-14T19:12:46.757Z,14.35
2023-09-14T19:15:34.022Z,14.60
2023-09-14T19:18:21.041Z,14.40
2023-09-14T19:21:09.321Z,14.73
2023-09-14T19:23:56.241Z,14.57
2023-09-14T19:26:42.958Z,14.63
2023-09-14T19:29:29.839Z,14.43
2023-09-14T19:32:16.316Z,14.20
2023-09-14T19:35:04.620Z,14.02
2023-09-14T19:37:50.723Z,13.90
2023-09-14T19:40:38.241Z,13.77
2023-09-14T19:43:28.127Z,14.30
2023-09-14T19:46:15.181Z,14.43
2023-09-14T19:49:01.960Z,14.30
2023-09-14T19:51:48.615Z,14.50
2023-09-14T19:54:35.593Z,15.05
2023-09-14T19:57:23.144Z,14.57
2023-09-14T20:00:09.372Z,15.02
2023-09-14T20:02:56.414Z,14.68
2023-09-14T20:05:43.367Z,14.52
2023-09-14T20:08:31.068Z,14.65
2023-09-14T20:11:17.195Z,14.05
2023-09-14T20:14:04.820Z,14.88
2023-09-14T20:16:52.612Z,15.43
2023-09-14T20:19:40.330Z,15.13
2023-09-14T20:22:27.152Z,15.68
2023-09-14T20:25:14.108Z,15.63
2023-09-14T20:28:00.543Z,15.05
2023-09-14T20:30:49.264Z,14.88
2023-09-14T20:33:35.639Z,15.10
2023-09-14T20:36:23.514Z,16.02
2023-09-14T20:39:11.988Z,15.32
2023-09-14T20:41:59.709Z,15.70
2023-09-14T20:44:46.993Z,15.50
2023-09-14T20:47:35.598Z,15.82
2023-09-14T20:50:23.295Z,16.30
2023-09-14T20:53:10.603Z,16.13
2023-09-14T20:55:58.728Z,15.68
2023-09-14T20:58:46.343Z,15.75
2023-09-14T21:01:33.184Z,16.10
2023-09-14T21:04:19.961Z,15.30
2023-09-14T21:07:09.007Z,15.65
2023-09-14T21:09:57.394Z,15.63
2023-09-14T21:12:44.638Z,15.48
2023-09-14T21:15:35.597Z,15.80
2023-09-14T21:18:25.632Z,15.10
2023-09-14T21:21:14.875Z,15.27
2023-09-14T21:24:00.981Z,15.23
2023-09-14T21:26:47.837Z,15.45
2023-09-14T21:29:34.083Z,15.55
2023-09-14T21:32:20.609Z,14.82
2023-09-14T21:35:07.625Z,15.02
2023-09-14T21:37:54.486Z,14.93
2023-09-14T21:40:41.079Z,15.27
2023-09-14T21:43:29.621Z,15.23
2023-09-14T21:46:16.208Z,15.27
2023-09-14T21:49:05.580Z,15.20
2023-09-14T21:51:51.879Z,14.75
2023-09-14T21:54:40.060Z,15.02
2023-09-14T21:57:26.458Z,15.65
2023-09-14T22:00:22.311Z,14.43
2023-09-14T22:03:08.893Z,15.55
2023-09-14T22:05:56.051Z,14.23
2023-09-14T22:08:42.754Z,14.32
2023-09-14T22:11:29.089Z,14.57
2023-09-14T22:14:15.630Z,14.55
2023-09-14T22:17:09.294Z,14.02
2023-09-14T22:19:56.235Z,14.57
2023-09-14T22:22:43.426Z,14.27
2023-09-14T22:25:29.810Z,14.25
2023-09-14T22:28:16.805Z,13.20
2023-09-14T22:31:03.264Z,13.98
2023-09-14T22:33:50.186Z,13.65
2023-09-14T22:36:37.082Z,14.10
2023-09-14T22:39:24.656Z,14.18
2023-09-14T22:42:11.053Z,14.05
2023-09-14T22:44:58.226Z,13.90
2023-09-14T22:47:44.952Z,14.10
2023-09-14T22:50:31.934Z,14.75
2023-09-14T22:53:18.872Z,14.63
2023-09-14T22:56:16.396Z,15.00
2023-09-14T22:59:03.947Z,14.88
2023-09-14T23:01:51.410Z,14.55
2023-09-14T23:04:37.606Z,14.82
2023-09-14T23:07:25.093Z,14.93
2023-09-14T23:10:11.970Z,14.82
2023-09-14T23:13:01.807Z,13.90
2023-09-14T23:15:48.145Z,13.73
2023-09-14T23:18:41.011Z,13.60
2023-09-14T23:21:27.205Z,14.10
2023-09-14T23:24:17.311Z,14.02
2023-09-14T23:27:05.329Z,14.07
2023-09-14T23:29:52.173Z,14.02
2023-09-14T23:32:39.125Z,14.85
2023-09-14T23:35:27.408Z,14.63
2023-09-14T23:38:13.898Z,15.10
2023-09-14T23:41:01.296Z,15.20
2023-09-14T23:43:47.402Z,15.07
2023-09-14T23:46:34.809Z,14.75
2023-09-14T23:49:21.021Z,14.77
2023-09-14T23:52:08.291Z,14.38
2023-09-14T23:54:54.600Z,14.30
2023-09-14T23:57:42.059Z,14.60
